createdAt,value
2017-12-28T00:01:14.013Z,3.17
2017-12-28T00:03:40.751Z,2.53
2017-12-28T00:06:07.475Z,2.30
2017-12-28T00:08:34.200Z,2.60
2017-12-28T00:11:00.931Z,2.50
2017-12-28T00:13:27.689Z,2.60
2017-12-28T00:15:54.414Z,2.37
2017-12-28T00:18:21.189Z,2.43
2017-12-28T00:20:47.933Z,2.07
2017-12-28T00:23:17.995Z,1.90
2017-12-28T00:25:44.734Z,2.00
2017-12-28T00:28:11.475Z,1.80
2017-12-28T00:30:38.262Z,2.27
2017-12-28T00:33:05.002Z,2.00
2017-12-28T00:35:32.499Z,1.90
2017-12-28T00:37:59.226Z,2.10
2017-12-28T00:40:26.738Z,1.70
2017-12-28T00:42:53.474Z,1.80
2017-12-28T00:45:20.201Z,2.40
2017-12-28T00:47:46.939Z,1.50
2017-12-28T00:50:13.661Z,1.83
2017-12-28T00:52:40.409Z,1.80
2017-12-28T00:55:07.197Z,2.23
2017-12-28T00:57:33.918Z,2.00
2017-12-28T01:00:00.659Z,1.90
2017-12-28T01:02:27.404Z,1.53
2017-12-28T01:04:54.120Z,2.00
2017-12-28T01:07:20.877Z,1.70
2017-12-28T01:09:47.617Z,1.97
2017-12-28T01:12:14.381Z,2.27
2017-12-28T01:14:41.112Z,2.00
2017-12-28T01:17:07.889Z,1.90
2017-12-28T01:19:34.634Z,2.07
2017-12-28T01:22:01.377Z,2.10
2017-12-28T01:24:28.110Z,2.17
2017-12-28T01:26:54.974Z,2.07
2017-12-28T01:29:21.724Z,2.60
2017-12-28T01:31:48.455Z,2.50
2017-12-28T01:34:15.200Z,2.30
2017-12-28T01:36:41.939Z,2.33
2017-12-28T01:39:08.680Z,2.40
2017-12-28T01:41:35.444Z,2.30
2017-12-28T01:44:02.153Z,2.50
2017-12-28T01:46:28.883Z,2.53
2017-12-28T01:48:55.647Z,2.93
2017-12-28T01:51:23.185Z,2.73
2017-12-28T01:53:49.900Z,3.20
2017-12-28T01:56:16.631Z,2.97
2017-12-28T01:58:43.377Z,3.10
2017-12-28T02:01:10.113Z,2.80
2017-12-28T02:03:36.840Z,2.37
2017-12-28T02:06:03.573Z,3.00
2017-12-28T02:08:30.316Z,2.40
2017-12-28T02:10:57.077Z,2.77
2017-12-28T02:13:23.830Z,2.77
2017-12-28T02:15:50.564Z,3.20
2017-12-28T02:18:17.282Z,2.20
2017-12-28T02:20:44.023Z,2.60
2017-12-28T02:23:10.778Z,2.67
2017-12-28T02:25:37.495Z,2.60
2017-12-28T02:28:04.237Z,2.30
2017-12-28T02:30:31.015Z,2.30
2017-12-28T02:32:57.747Z,2.50
2017-12-28T02:35:24.483Z,2.80
2017-12-28T02:37:51.238Z,2.67
2017-12-28T02:40:18.738Z,2.63
2017-12-28T02:42:45.496Z,2.73
2017-12-28T02:45:12.211Z,2.30
2017-12-28T02:47:38.985Z,2.40
2017-12-28T02:50:05.693Z,3.67
2017-12-28T02:52:32.428Z,3.03
2017-12-28T02:54:59.168Z,2.57
2017-12-28T02:57:26.726Z,2.80
2017-12-28T02:59:54.255Z,2.63
2017-12-28T03:02:20.983Z,2.50
2017-12-28T03:04:47.754Z,2.73
2017-12-28T03:07:14.499Z,2.73
2017-12-28T03:09:41.248Z,3.47
2017-12-28T03:12:07.987Z,3.43
2017-12-28T03:14:34.706Z,2.67
2017-12-28T03:17:02.235Z,3.03
2017-12-28T03:19:28.972Z,3.03
2017-12-28T03:21:55.854Z,2.53
2017-12-28T03:24:23.387Z,2.30
2017-12-28T03:26:50.128Z,2.83
2017-12-28T03:29:16.852Z,3.23
2017-12-28T03:31:43.599Z,2.80
2017-12-28T03:34:10.451Z,2.60
2017-12-28T03:36:37.195Z,2.67
2017-12-28T03:39:04.701Z,2.73
2017-12-28T03:41:31.472Z,2.33
2017-12-28T03:43:58.225Z,3.07
2017-12-28T03:46:25.745Z,2.70
2017-12-28T03:48:52.497Z,2.33
2017-12-28T03:51:19.229Z,3.13
2017-12-28T03:53:45.979Z,2.73
2017-12-28T03:56:12.709Z,2.50
2017-12-28T03:58:39.643Z,2.53
2017-12-28T04:01:06.371Z,2.80
2017-12-28T04:03:33.120Z,2.50
2017-12-28T04:05:59.854Z,2.77
2017-12-28T04:08:26.592Z,2.70
2017-12-28T04:10:53.333Z,3.60
2017-12-28T04:13:20.095Z,2.93
2017-12-28T04:15:46.810Z,3.03
2017-12-28T04:18:13.538Z,3.10
2017-12-28T04:20:40.349Z,3.10
2017-12-28T04:23:07.967Z,3.00
2017-12-28T04:25:34.696Z,2.87
2017-12-28T04:28:01.423Z,2.70
2017-12-28T04:30:28.170Z,3.43
2017-12-28T04:32:54.930Z,3.03
2017-12-28T04:35:21.665Z,3.10
2017-12-28T04:37:48.406Z,3.20
2017-12-28T04:40:15.132Z,3.37
2017-12-28T04:42:41.876Z,2.80
2017-12-28T04:45:08.627Z,3.27
2017-12-28T04:47:35.359Z,4.00
2017-12-28T04:50:02.100Z,2.73
2017-12-28T04:52:28.848Z,2.30
2017-12-28T04:54:55.599Z,2.70
2017-12-28T04:57:23.140Z,3.00
2017-12-28T04:59:49.860Z,2.93
2017-12-28T05:02:16.609Z,3.10
2017-12-28T05:04:43.351Z,2.40
2017-12-28T05:07:10.085Z,2.70
2017-12-28T05:09:36.820Z,3.07
2017-12-28T05:12:03.568Z,2.83
2017-12-28T05:14:30.326Z,3.40
2017-12-28T05:16:57.093Z,2.23
2017-12-28T05:19:24.565Z,2.40
2017-12-28T05:21:51.286Z,2.53
2017-12-28T05:24:21.286Z,2.70
2017-12-28T05:26:47.986Z,2.77
2017-12-28T05:29:14.718Z,2.73
2017-12-28T05:31:41.442Z,3.17
2017-12-28T05:34:08.197Z,2.50
2017-12-28T05:36:35.019Z,2.73
2017-12-28T05:39:02.703Z,3.10
2017-12-28T05:41:29.426Z,2.80
2017-12-28T05:43:56.168Z,2.80
2017-12-28T05:46:22.895Z,2.67
2017-12-28T05:48:49.658Z,2.73
2017-12-28T05:51:16.383Z,2.43
2017-12-28T05:53:43.106Z,2.10
2017-12-28T05:56:09.883Z,2.87
2017-12-28T05:58:36.609Z,2.57
2017-12-28T06:01:03.352Z,2.50
2017-12-28T06:03:30.079Z,2.97
2017-12-28T06:05:56.832Z,2.17
2017-12-28T06:08:23.565Z,2.67
2017-12-28T06:10:50.298Z,2.37
2017-12-28T06:13:17.027Z,2.77
2017-12-28T06:15:43.765Z,2.50
2017-12-28T06:18:10.542Z,2.40
2017-12-28T06:20:37.255Z,2.30
2017-12-28T06:23:03.995Z,2.50
2017-12-28T06:25:30.723Z,2.33
2017-12-28T06:27:57.461Z,2.37
2017-12-28T06:30:24.179Z,2.37
2017-12-28T06:32:50.932Z,2.50
2017-12-28T06:35:17.646Z,2.80
2017-12-28T06:37:44.391Z,2.00
2017-12-28T06:40:11.132Z,3.13
2017-12-28T06:42:37.867Z,2.57
2017-12-28T06:45:04.603Z,3.20
2017-12-28T06:47:31.336Z,2.60
2017-12-28T06:49:58.105Z,3.30
2017-12-28T06:52:24.919Z,3.63
2017-12-28T06:54:51.675Z,5.53
2017-12-28T06:57:18.406Z,4.00
2017-12-28T06:59:45.148Z,3.30
2017-12-28T07:02:11.917Z,4.10
2017-12-28T07:04:38.669Z,3.80
2017-12-28T07:07:05.386Z,3.73
2017-12-28T07:09:32.159Z,4.37
2017-12-28T07:11:58.915Z,4.27
2017-12-28T07:14:26.416Z,3.93
2017-12-28T07:16:53.226Z,4.00
2017-12-28T07:19:19.947Z,3.73
2017-12-28T07:21:47.476Z,4.13
2017-12-28T07:24:14.203Z,4.63
2017-12-28T07:26:40.934Z,5.57
2017-12-28T07:29:07.688Z,5.33
2017-12-28T07:31:34.441Z,5.60
2017-12-28T07:34:01.338Z,5.30
2017-12-28T07:36:28.107Z,5.37
2017-12-28T07:38:54.846Z,5.90
2017-12-28T07:41:21.608Z,5.53
2017-12-28T07:43:48.335Z,6.33
2017-12-28T07:46:15.086Z,7.67
2017-12-28T07:48:41.951Z,6.63
2017-12-28T07:51:09.477Z,5.33
2017-12-28T07:53:36.216Z,5.83
2017-12-28T07:56:02.963Z,5.50
2017-12-28T07:58:29.716Z,5.63
2017-12-28T08:00:57.244Z,5.70
2017-12-28T08:03:23.995Z,5.20
2017-12-28T08:05:50.725Z,6.13
2017-12-28T08:08:17.461Z,6.30
2017-12-28T08:10:44.197Z,5.57
2017-12-28T08:13:11.079Z,5.37
2017-12-28T08:15:38.598Z,5.47
2017-12-28T08:18:05.351Z,4.93
2017-12-28T08:20:32.084Z,6.00
2017-12-28T08:22:58.827Z,5.10
2017-12-28T08:25:25.547Z,4.77
2017-12-28T08:27:52.307Z,5.03
2017-12-28T08:30:19.044Z,5.17
2017-12-28T08:32:45.819Z,5.93
2017-12-28T08:35:12.584Z,6.07
2017-12-28T08:37:39.302Z,5.77
2017-12-28T08:40:06.069Z,6.00
2017-12-28T08:42:32.818Z,6.97
2017-12-28T08:44:59.573Z,7.57
2017-12-28T08:47:26.306Z,7.60
2017-12-28T08:49:53.075Z,7.97
2017-12-28T08:52:20.587Z,8.80
2017-12-28T08:54:47.298Z,8.17
2017-12-28T08:57:14.050Z,9.30
2017-12-28T08:59:40.778Z,10.17
2017-12-28T09:02:07.610Z,9.30
2017-12-28T09:04:34.358Z,11.20
2017-12-28T09:07:01.102Z,11.17
2017-12-28T09:09:27.848Z,11.00
2017-12-28T09:11:54.583Z,10.67
2017-12-28T09:14:21.334Z,10.97
2017-12-28T09:16:48.099Z,11.23
2017-12-28T09:19:14.859Z,10.40
2017-12-28T09:21:42.359Z,10.20
2017-12-28T09:24:09.114Z,10.90
2017-12-28T09:26:35.850Z,9.77
2017-12-28T09:29:02.612Z,10.60
2017-12-28T09:31:29.343Z,9.77
2017-12-28T09:33:56.119Z,9.20
2017-12-28T09:36:22.822Z,8.47
2017-12-28T09:38:49.607Z,9.10
2017-12-28T09:41:17.134Z,7.73
2017-12-28T09:43:43.878Z,7.73
2017-12-28T09:46:10.613Z,6.57
2017-12-28T09:48:42.858Z,6.80
2017-12-28T09:51:09.616Z,6.23
2017-12-28T09:53:36.357Z,6.23
2017-12-28T09:56:03.126Z,6.23
2017-12-28T09:58:30.574Z,6.33
2017-12-28T10:00:58.109Z,5.33
2017-12-28T10:03:24.841Z,7.33
2017-12-28T10:05:51.720Z,6.40
2017-12-28T10:08:18.442Z,6.90
2017-12-28T10:10:46.008Z,5.93
2017-12-28T10:13:13.516Z,6.03
2017-12-28T10:15:40.292Z,6.00
2017-12-28T10:18:07.038Z,5.87
2017-12-28T10:20:34.535Z,5.83
2017-12-28T10:23:01.288Z,5.97
2017-12-28T10:25:28.030Z,6.10
2017-12-28T10:27:54.762Z,5.00
2017-12-28T10:30:21.485Z,5.20
2017-12-28T10:32:48.266Z,5.47
2017-12-28T10:35:14.984Z,5.77
2017-12-28T10:37:41.762Z,5.00
2017-12-28T10:40:08.488Z,5.70
2017-12-28T10:42:35.264Z,4.97
2017-12-28T10:45:01.996Z,4.17
2017-12-28T10:47:29.525Z,5.03
2017-12-28T10:49:56.267Z,4.67
2017-12-28T10:52:23.151Z,3.90
2017-12-28T10:54:49.912Z,4.40
2017-12-28T10:57:16.682Z,4.27
2017-12-28T10:59:43.401Z,4.90
2017-12-28T11:02:10.156Z,3.57
2017-12-28T11:04:36.883Z,4.47
2017-12-28T11:07:03.640Z,4.00
2017-12-28T11:09:30.391Z,3.80
2017-12-28T11:11:57.897Z,4.37
2017-12-28T11:14:24.616Z,4.27
2017-12-28T11:16:51.379Z,4.20
2017-12-28T11:19:18.085Z,4.30
2017-12-28T11:21:44.847Z,4.50
2017-12-28T11:24:11.570Z,4.07
2017-12-28T11:26:38.320Z,5.30
2017-12-28T11:29:05.076Z,3.87
2017-12-28T11:31:31.875Z,4.80
2017-12-28T11:33:59.374Z,4.67
2017-12-28T11:36:26.112Z,4.70
2017-12-28T11:38:52.853Z,4.10
2017-12-28T11:41:19.634Z,4.70
2017-12-28T11:43:46.373Z,4.70
2017-12-28T11:46:13.123Z,3.83
2017-12-28T11:48:40.646Z,3.70
2017-12-28T11:51:07.441Z,3.40
2017-12-28T11:53:34.158Z,4.20
2017-12-28T11:56:01.672Z,3.67
2017-12-28T11:58:28.482Z,3.67
2017-12-28T12:00:55.226Z,4.10
2017-12-28T12:03:21.969Z,4.47
2017-12-28T12:05:48.698Z,3.33
2017-12-28T12:08:15.486Z,3.67
2017-12-28T12:10:42.227Z,3.37
2017-12-28T12:13:08.953Z,4.07
2017-12-28T12:15:35.710Z,3.70
2017-12-28T12:18:02.451Z,3.47
2017-12-28T12:20:29.198Z,3.90
2017-12-28T12:22:56.694Z,3.77
2017-12-28T12:25:23.457Z,3.70
2017-12-28T12:27:50.198Z,3.10
2017-12-28T12:30:16.948Z,4.17
2017-12-28T12:32:43.684Z,3.50
2017-12-28T12:35:10.484Z,4.10
2017-12-28T12:37:37.234Z,3.90
2017-12-28T12:40:03.985Z,4.17
2017-12-28T12:42:30.732Z,5.10
2017-12-28T12:44:57.463Z,5.37
2017-12-28T12:47:24.238Z,3.63
2017-12-28T12:49:51.058Z,4.10
2017-12-28T12:52:17.806Z,4.90
2017-12-28T12:54:44.525Z,4.17
2017-12-28T12:57:11.295Z,4.20
2017-12-28T12:59:38.064Z,4.30
2017-12-28T13:02:04.784Z,3.87
2017-12-28T13:04:31.535Z,4.70
2017-12-28T13:06:59.027Z,4.57
2017-12-28T13:09:25.785Z,4.07
2017-12-28T13:14:24.982Z,3.37
2017-12-28T13:16:51.743Z,4.40
2017-12-28T13:19:18.627Z,4.10
2017-12-28T13:21:46.132Z,4.40
2017-12-28T13:24:12.909Z,4.37
2017-12-28T13:26:39.647Z,4.87
2017-12-28T13:29:07.150Z,5.63
2017-12-28T13:31:33.979Z,4.27
2017-12-28T13:34:00.729Z,4.57
2017-12-28T13:36:27.479Z,5.20
2017-12-28T13:38:54.326Z,4.13
2017-12-28T13:41:21.091Z,4.43
2017-12-28T13:43:48.599Z,5.13
2017-12-28T13:46:15.370Z,4.23
2017-12-28T13:48:42.113Z,4.97
2017-12-28T13:51:08.864Z,4.70
2017-12-28T13:53:35.587Z,4.80
2017-12-28T13:56:02.347Z,5.10
2017-12-28T13:58:30.604Z,4.03
2017-12-28T14:00:57.371Z,4.50
2017-12-28T14:03:24.888Z,4.50
2017-12-28T14:05:51.603Z,4.13
2017-12-28T14:08:18.413Z,4.37
2017-12-28T14:10:45.911Z,4.83
2017-12-28T14:13:12.780Z,4.80
2017-12-28T14:15:39.506Z,4.77
2017-12-28T14:18:06.266Z,5.10
2017-12-28T14:20:33.002Z,4.33
2017-12-28T14:22:59.741Z,4.73
2017-12-28T14:25:26.505Z,4.33
2017-12-28T14:27:54.103Z,4.07
2017-12-28T14:30:20.870Z,4.60
2017-12-28T14:32:47.614Z,4.40
2017-12-28T14:35:14.384Z,4.20
2017-12-28T14:37:41.891Z,4.30
2017-12-28T14:40:10.291Z,4.40
2017-12-28T14:42:37.834Z,4.20
2017-12-28T14:45:04.752Z,4.60
2017-12-28T14:47:32.550Z,4.73
2017-12-28T14:50:00.104Z,4.03
2017-12-28T14:52:26.852Z,4.27
2017-12-28T14:54:53.635Z,4.57
2017-12-28T14:57:20.384Z,4.30
2017-12-28T14:59:47.212Z,5.40
2017-12-28T15:02:14.718Z,4.93
2017-12-28T15:04:41.447Z,4.53
2017-12-28T15:07:08.196Z,4.63
2017-12-28T15:09:34.935Z,3.83
2017-12-28T15:12:01.934Z,4.10
2017-12-28T15:14:28.661Z,4.03
2017-12-28T15:16:55.463Z,4.83
2017-12-28T15:19:22.283Z,4.40
2017-12-28T15:21:49.026Z,4.70
2017-12-28T15:24:15.794Z,4.33
2017-12-28T15:26:42.598Z,4.50
2017-12-28T15:29:09.550Z,4.60
2017-12-28T15:31:36.287Z,4.60
2017-12-28T15:34:03.045Z,5.07
2017-12-28T15:36:29.818Z,4.37
2017-12-28T15:38:56.567Z,4.83
2017-12-28T15:41:24.072Z,4.87
2017-12-28T15:43:50.837Z,5.20
2017-12-28T15:46:17.599Z,4.87
2017-12-28T15:48:45.104Z,5.37
2017-12-28T15:51:11.850Z,5.10
2017-12-28T15:53:38.655Z,5.23
2017-12-28T15:56:05.401Z,5.10
2017-12-28T15:58:32.129Z,6.07
2017-12-28T16:00:58.916Z,5.93
2017-12-28T16:03:25.638Z,4.70
2017-12-28T16:05:52.528Z,5.77
2017-12-28T16:08:20.053Z,5.00
2017-12-28T16:10:46.800Z,4.83
2017-12-28T16:13:13.567Z,5.80
2017-12-28T16:15:40.315Z,4.83
2017-12-28T16:18:07.828Z,5.80
2017-12-28T16:20:34.578Z,6.07
2017-12-28T16:23:01.336Z,5.50
2017-12-28T16:25:28.854Z,5.33
2017-12-28T16:27:55.602Z,6.17
2017-12-28T16:30:22.397Z,6.00
2017-12-28T16:32:49.173Z,6.47
2017-12-28T16:35:15.966Z,5.93
2017-12-28T16:37:42.681Z,6.80
2017-12-28T16:40:10.185Z,6.43
2017-12-28T16:42:36.937Z,6.53
2017-12-28T16:45:03.698Z,6.67
2017-12-28T16:47:30.442Z,6.60
2017-12-28T16:49:57.947Z,6.57
2017-12-28T16:52:25.625Z,6.70
2017-12-28T16:54:52.396Z,6.17
2017-12-28T16:57:19.125Z,6.20
2017-12-28T16:59:45.926Z,6.57
2017-12-28T17:02:12.667Z,7.40
2017-12-28T17:04:39.403Z,7.47
2017-12-28T17:07:06.161Z,6.80
2017-12-28T17:09:32.906Z,6.97
2017-12-28T17:11:59.655Z,7.40
2017-12-28T17:14:27.757Z,6.77
2017-12-28T17:16:54.498Z,6.73
2017-12-28T17:19:21.235Z,7.27
2017-12-28T17:21:48.012Z,7.60
2017-12-28T17:24:14.743Z,6.97
2017-12-28T17:26:41.584Z,7.20
2017-12-28T17:29:09.122Z,7.57
2017-12-28T17:31:36.796Z,6.97
2017-12-28T17:34:03.562Z,6.63
2017-12-28T17:36:30.310Z,6.87
2017-12-28T17:38:57.063Z,7.03
2017-12-28T17:41:23.817Z,6.93
2017-12-28T17:43:50.558Z,7.23
2017-12-28T17:46:17.354Z,7.10
2017-12-28T17:48:44.111Z,7.53
2017-12-28T17:51:10.910Z,7.50
2017-12-28T17:53:38.418Z,6.73
2017-12-28T17:56:05.173Z,7.53
2017-12-28T17:58:31.959Z,8.37
2017-12-28T18:00:58.684Z,7.63
2017-12-28T18:03:25.455Z,7.43
2017-12-28T18:05:52.187Z,8.13
2017-12-28T18:08:18.960Z,8.33
2017-12-28T18:10:45.726Z,8.33
2017-12-28T18:13:12.424Z,8.20
2017-12-28T18:15:39.216Z,7.70
2017-12-28T18:18:06.731Z,8.53
2017-12-28T18:20:33.500Z,8.07
2017-12-28T18:23:00.297Z,8.70
2017-12-28T18:25:27.112Z,8.57
2017-12-28T18:27:53.877Z,7.80
2017-12-28T18:30:20.655Z,9.23
2017-12-28T18:32:47.445Z,8.07
2017-12-28T18:35:14.271Z,8.47
2017-12-28T18:37:41.064Z,8.80
2017-12-28T18:40:07.939Z,8.73
2017-12-28T18:42:35.556Z,7.80
2017-12-28T18:45:02.512Z,8.40
2017-12-28T18:47:29.319Z,8.37
2017-12-28T18:49:56.190Z,7.10
2017-12-28T18:52:23.383Z,7.67
2017-12-28T18:54:50.352Z,7.67
2017-12-28T18:57:17.372Z,7.10
2017-12-28T18:59:45.216Z,6.80
2017-12-28T19:02:12.057Z,12.70
2017-12-28T19:04:39.327Z,9.40
2017-12-28T19:07:06.342Z,8.17
2017-12-28T19:09:33.111Z,6.60
2017-12-28T19:11:59.881Z,7.47
2017-12-28T19:14:26.637Z,7.33
2017-12-28T19:16:53.387Z,6.80
2017-12-28T19:19:20.179Z,6.77
2017-12-28T19:21:46.937Z,7.13
2017-12-28T19:24:13.754Z,6.67
2017-12-28T19:26:40.536Z,6.70
2017-12-28T19:29:07.293Z,7.17
2017-12-28T19:31:34.055Z,6.93
2017-12-28T19:34:01.619Z,6.87
2017-12-28T19:36:29.147Z,7.10
2017-12-28T19:38:56.229Z,6.80
2017-12-28T19:41:23.067Z,6.87
2017-12-28T19:43:50.572Z,5.87
2017-12-28T19:46:17.479Z,5.83
2017-12-28T19:48:44.328Z,6.87
2017-12-28T19:51:11.276Z,7.30
2017-12-28T19:53:38.707Z,6.37
2017-12-28T19:56:05.702Z,6.47
2017-12-28T19:58:33.121Z,6.40
2017-12-28T20:01:00.154Z,5.63
2017-12-28T20:03:27.405Z,5.47
2017-12-28T20:05:54.554Z,5.77
2017-12-28T20:08:21.739Z,5.90
2017-12-28T20:10:48.742Z,7.80
2017-12-28T20:13:17.130Z,5.50
2017-12-28T20:15:44.899Z,5.70
2017-12-28T20:18:12.551Z,5.57
2017-12-28T20:20:40.343Z,6.03
2017-12-28T20:23:07.325Z,5.80
2017-12-28T20:25:34.916Z,5.80
2017-12-28T20:28:02.593Z,6.30
2017-12-28T20:30:29.625Z,5.77
2017-12-28T20:32:56.451Z,6.43
2017-12-28T20:35:24.020Z,4.77
2017-12-28T20:37:51.483Z,5.63
2017-12-28T20:40:18.618Z,5.37
2017-12-28T20:42:46.085Z,6.13
2017-12-28T20:45:13.638Z,5.73
2017-12-28T20:47:40.786Z,4.63
2017-12-28T20:50:08.417Z,5.10
2017-12-28T20:52:35.457Z,4.50
2017-12-28T20:55:02.746Z,5.13
2017-12-28T20:57:29.725Z,4.77
2017-12-28T20:59:56.738Z,4.63
2017-12-28T21:02:23.886Z,4.67
2017-12-28T21:04:51.757Z,4.57
2017-12-28T21:07:19.310Z,4.20
2017-12-28T21:09:46.555Z,4.67
2017-12-28T21:12:13.429Z,5.33
2017-12-28T21:14:40.647Z,5.53
2017-12-28T21:17:08.157Z,4.73
2017-12-28T21:19:35.764Z,5.33
2017-12-28T21:22:03.333Z,4.47
2017-12-28T21:24:30.989Z,5.30
2017-12-28T21:26:58.335Z,6.13
2017-12-28T21:29:25.898Z,4.90
2017-12-28T21:31:53.556Z,4.93
2017-12-28T21:34:20.602Z,5.03
2017-12-28T21:36:47.748Z,5.67
2017-12-28T21:39:15.017Z,4.77
2017-12-28T21:41:42.353Z,5.20
2017-12-28T21:44:09.506Z,5.30
2017-12-28T21:46:36.650Z,5.30
2017-12-28T21:49:03.697Z,4.90
2017-12-28T21:51:30.655Z,5.00
2017-12-28T21:53:57.686Z,5.33
2017-12-28T21:56:24.565Z,4.90
2017-12-28T21:58:52.186Z,5.70
2017-12-28T22:01:19.438Z,5.23
2017-12-28T22:03:46.274Z,5.67
2017-12-28T22:06:14.144Z,5.10
2017-12-28T22:08:41.293Z,5.10
2017-12-28T22:11:08.233Z,5.83
2017-12-28T22:13:35.863Z,4.97
2017-12-28T22:16:02.702Z,5.40
2017-12-28T22:18:29.460Z,6.20
2017-12-28T22:20:56.959Z,5.93
2017-12-28T22:23:23.954Z,5.63
2017-12-28T22:25:50.738Z,5.37
2017-12-28T22:28:17.527Z,5.77
2017-12-28T22:30:44.299Z,5.20
2017-12-28T22:33:11.905Z,5.50
2017-12-28T22:35:38.770Z,5.73
2017-12-28T22:38:05.512Z,5.97
2017-12-28T22:40:32.266Z,5.20
2017-12-28T22:42:59.062Z,5.07
2017-12-28T22:45:25.833Z,5.33
2017-12-28T22:47:52.569Z,5.97
2017-12-28T22:50:19.333Z,5.40
2017-12-28T22:52:46.837Z,5.50
2017-12-28T22:55:13.625Z,5.50
2017-12-28T22:57:40.352Z,5.40
2017-12-28T23:00:07.873Z,5.60
2017-12-28T23:02:34.646Z,5.07
2017-12-28T23:05:01.371Z,5.50
2017-12-28T23:07:28.148Z,6.03
2017-12-28T23:09:54.889Z,5.83
2017-12-28T23:12:21.643Z,5.73
2017-12-28T23:14:48.375Z,6.20
2017-12-28T23:17:15.131Z,6.40
2017-12-28T23:19:41.861Z,6.40
2017-12-28T23:22:08.756Z,5.77
2017-12-28T23:24:35.505Z,5.97
2017-12-28T23:27:03.039Z,6.20
2017-12-28T23:29:29.762Z,6.40
2017-12-28T23:31:56.504Z,6.13
2017-12-28T23:34:23.342Z,5.97
2017-12-28T23:36:50.051Z,6.70
2017-12-28T23:39:16.792Z,6.23
2017-12-28T23:41:43.518Z,6.63
2017-12-28T23:44:10.271Z,6.60
2017-12-28T23:46:37.007Z,6.17
2017-12-28T23:49:03.758Z,6.43
2017-12-28T23:51:30.489Z,5.37
2017-12-28T23:53:57.369Z,5.90
2017-12-28T23:56:24.078Z,6.70
2017-12-28T23:58:50.833Z,6.63
